Time;durP1;ratioP1;P1;durP2;ratioP2;P2;SDS_P1;SDS_P2;PMS_P1;PMS_P2;Temp;Humidity;BMP_temperature;BMP_pressure;BME280_temperature;BME280_humidity;BME280_pressure;Samples;Min_cycle;Max_cycle;Signal;HPM_P1;HPM_P2
2021/12/22 00:02:00;;;;;;;;;;;-3.40;99.90;;;;;;5010618;28;19926;-69
2021/12/22 00:04:26;;;;;;;;;;;-3.40;99.90;;;;;;5009757;28;19925;-70
2021/12/22 00:06:53;;;;;;;;;;;-3.50;99.90;;;;;;5007997;28;19993;-70
2021/12/22 00:09:20;;;;;;;;;;;-3.40;99.90;;;;;;5016547;28;19968;-70
2021/12/22 00:11:49;;;;;;;;;;;-3.40;99.90;;;;;;5018331;28;20003;-71
2021/12/22 00:14:16;;;;;;;;;;;-3.30;99.90;;;;;;5008027;28;19926;-70
2021/12/22 00:16:43;;;;;;;;;;;-3.30;99.90;;;;;;5008217;28;19926;-74
2021/12/22 00:19:09;;;;;;;;;;;-3.30;99.90;;;;;;5009218;28;20024;-69
2021/12/22 00:21:36;;;;;;;;;;;-3.30;99.90;;;;;;5011608;28;19929;-70
2021/12/22 00:24:03;;;;;;;;;;;-3.30;99.90;;;;;;5009056;28;19931;-69
2021/12/22 00:26:29;;;;;;;;;;;-3.30;99.90;;;;;;5012254;28;20016;-69
2021/12/22 00:28:57;;;;;;;;;;;-3.40;99.90;;;;;;5009059;28;19932;-69
2021/12/22 00:31:24;;;;;;;;;;;-3.40;99.90;;;;;;5012278;28;19926;-69
2021/12/22 00:33:53;;;;;;;;;;;-3.40;99.90;;;;;;5005974;28;20567;-69
2021/12/22 00:36:21;;;;;;;;;;;-3.60;99.90;;;;;;5012899;28;20279;-69
2021/12/22 00:38:47;;;;;;;;;;;-3.60;99.90;;;;;;5010300;28;19932;-69
2021/12/22 00:41:14;;;;;;;;;;;-3.60;99.90;;;;;;5010674;28;19932;-70
2021/12/22 00:43:41;;;;;;;;;;;-3.50;99.90;;;;;;5004596;28;19926;-70
2021/12/22 00:46:12;;;;;;;;;;;-3.50;99.90;;;;;;5000423;28;20340;-71
2021/12/22 00:48:39;;;;;;;;;;;-3.50;99.90;;;;;;5006447;28;20022;-70
2021/12/22 00:51:05;;;;;;;;;;;-3.50;99.90;;;;;;5009053;28;20020;-70
2021/12/22 00:53:32;;;;;;;;;;;-3.60;99.90;;;;;;5008687;28;20305;-70
2021/12/22 00:55:59;;;;;;;;;;;-3.50;99.90;;;;;;5004021;28;19926;-70
2021/12/22 00:58:25;;;;;;;;;;;-3.50;99.90;;;;;;5010023;28;20016;-70
2021/12/22 01:00:52;;;;;;;;;;;-3.50;99.90;;;;;;4995411;28;19932;-70
2021/12/22 01:03:23;;;;;;;;;;;-3.60;99.90;;;;;;5010368;28;19934;-71
2021/12/22 01:05:50;;;;;;;;;;;-3.60;99.90;;;;;;4997827;28;19926;-71
2021/12/22 01:08:16;;;;;;;;;;;-3.60;99.90;;;;;;5007815;28;20414;-70
2021/12/22 01:10:43;;;;;;;;;;;-3.70;99.90;;;;;;5011721;28;19926;-69
2021/12/22 01:13:10;;;;;;;;;;;-3.80;99.90;;;;;;5009226;28;20355;-70
2021/12/22 01:15:37;;;;;;;;;;;-3.80;99.90;;;;;;5003505;28;19961;-70
2021/12/22 01:18:10;;;;;;;;;;;-3.80;99.90;;;;;;4998932;28;20292;-70
2021/12/22 01:20:52;;;;;;;;;;;-3.80;99.90;;;;;;5015882;28;19981;-70
2021/12/22 01:23:20;;;;;;;;;;;-3.90;99.90;;;;;;5013665;28;20418;-70
2021/12/22 01:25:48;;;;;;;;;;;-3.90;99.90;;;;;;5006487;28;20300;-69
2021/12/22 01:28:16;;;;;;;;;;;-3.80;99.90;;;;;;5010825;28;19987;-70
2021/12/22 01:30:45;;;;;;;;;;;-3.80;99.90;;;;;;5014528;28;19975;-70
2021/12/22 01:33:12;;;;;;;;;;;-3.80;99.90;;;;;;5014488;28;19926;-70
2021/12/22 01:35:40;;;;;;;;;;;-3.80;99.90;;;;;;5008169;28;19940;-70
2021/12/22 01:38:07;;;;;;;;;;;-3.90;99.90;;;;;;5011959;28;19991;-69
2021/12/22 01:40:35;;;;;;;;;;;-3.90;99.90;;;;;;5013002;28;19925;-69
2021/12/22 01:43:04;;;;;;;;;;;-3.90;99.90;;;;;;5020946;28;19933;-70
2021/12/22 01:45:51;;;;;;;;;;;-3.90;99.90;;;;;;5008652;28;19925;-70
2021/12/22 01:51:05;;;;;;;;;;;-3.90;99.90;;;;;;5014338;28;19941;-70
2021/12/22 01:53:35;;;;;;;;;;;-3.90;99.90;;;;;;5011700;28;19996;-70
2021/12/22 01:56:07;;;;;;;;;;;-3.90;99.90;;;;;;5001191;28;20696;-70
2021/12/22 01:58:36;;;;;;;;;;;-3.90;99.90;;;;;;5010519;28;19925;-70
2021/12/22 02:01:03;;;;;;;;;;;-3.90;99.90;;;;;;5016528;28;19980;-70
2021/12/22 02:03:30;;;;;;;;;;;-3.80;99.90;;;;;;5016239;28;19932;-70
2021/12/22 02:05:57;;;;;;;;;;;-3.80;99.90;;;;;;5003449;28;20033;-71
2021/12/22 02:08:25;;;;;;;;;;;-3.70;99.90;;;;;;5012126;28;20035;-70
2021/12/22 02:10:51;;;;;;;;;;;-3.70;99.90;;;;;;5012276;28;19939;-70
2021/12/22 02:13:23;;;;;;;;;;;-3.70;99.90;;;;;;5010647;28;19932;-70
2021/12/22 02:15:49;;;;;;;;;;;-3.70;99.90;;;;;;5010723;28;19925;-70
2021/12/22 02:18:19;;;;;;;;;;;-3.80;99.90;;;;;;5012810;28;19925;-70
2021/12/22 02:20:48;;;;;;;;;;;-3.80;99.90;;;;;;5012084;28;19931;-70
2021/12/22 02:23:14;;;;;;;;;;;-3.80;99.90;;;;;;5008853;28;20077;-70
2021/12/22 02:25:47;;;;;;;;;;;-3.90;99.90;;;;;;5014642;28;20360;-70
2021/12/22 02:28:19;;;;;;;;;;;-3.90;99.90;;;;;;5003137;28;19975;-70
2021/12/22 02:30:46;;;;;;;;;;;-4.00;99.90;;;;;;5012980;28;19957;-70
2021/12/22 02:33:24;;;;;;;;;;;-4.00;99.90;;;;;;5008307;28;19929;-70
2021/12/22 02:36:08;;;;;;;;;;;-4.00;99.90;;;;;;5030975;28;19972;-70
2021/12/22 02:38:37;;;;;;;;;;;-4.00;99.90;;;;;;5024987;28;19945;-70
2021/12/22 02:41:07;;;;;;;;;;;-4.10;99.90;;;;;;5013694;28;19929;-70
2021/12/22 02:43:34;;;;;;;;;;;-4.20;99.90;;;;;;5009980;28;20024;-70
2021/12/22 02:46:01;;;;;;;;;;;-4.20;99.90;;;;;;4998959;28;20389;-70
2021/12/22 02:48:28;;;;;;;;;;;-4.30;99.90;;;;;;5015940;28;19926;-72
2021/12/22 02:50:57;;;;;;;;;;;-4.30;99.90;;;;;;5017069;28;20032;-71
2021/12/22 02:53:29;;;;;;;;;;;-4.30;99.90;;;;;;5009789;28;19926;-70
2021/12/22 02:56:01;;;;;;;;;;;-4.30;99.90;;;;;;5014777;28;19956;-69
2021/12/22 02:58:35;;;;;;;;;;;-4.30;99.90;;;;;;5013045;28;20020;-69
2021/12/22 03:01:21;;;;;;;;;;;-4.30;99.90;;;;;;5010243;28;20345;-69
2021/12/22 03:03:57;;;;;;;;;;;-4.20;99.90;;;;;;5006674;28;19926;-70
2021/12/22 03:06:32;;;;;;;;;;;-4.30;99.90;;;;;;5013524;28;19960;-70
2021/12/22 03:08:59;;;;;;;;;;;-4.30;99.90;;;;;;5008571;28;19933;-70
2021/12/22 03:11:26;;;;;;;;;;;-4.30;99.90;;;;;;5013000;28;19925;-69
2021/12/22 03:13:53;;;;;;;;;;;-4.40;99.90;;;;;;5004973;28;19932;-69
2021/12/22 03:16:20;;;;;;;;;;;-4.30;99.90;;;;;;5012832;28;19925;-69
2021/12/22 03:18:47;;;;;;;;;;;-4.30;99.90;;;;;;5009113;28;19926;-70
2021/12/22 03:21:20;;;;;;;;;;;-4.30;99.90;;;;;;5009197;28;19925;-70
2021/12/22 03:23:50;;;;;;;;;;;-4.20;99.90;;;;;;5008505;28;19926;-70
2021/12/22 03:26:18;;;;;;;;;;;-4.30;99.90;;;;;;5013336;28;19926;-70
2021/12/22 03:28:45;;;;;;;;;;;-4.30;99.90;;;;;;5009818;28;20368;-70
2021/12/22 03:31:12;;;;;;;;;;;-4.20;99.90;;;;;;5011308;28;19929;-69
2021/12/22 03:33:38;;;;;;;;;;;-4.20;99.90;;;;;;5006397;28;19932;-69
2021/12/22 03:36:05;;;;;;;;;;;-4.30;99.90;;;;;;5010723;28;20024;-70
2021/12/22 03:38:33;;;;;;;;;;;-4.20;99.90;;;;;;5011011;28;19937;-69
2021/12/22 03:41:01;;;;;;;;;;;-4.20;99.90;;;;;;5008615;28;19947;-69
2021/12/22 03:43:27;;;;;;;;;;;-4.20;99.90;;;;;;5010543;28;19926;-69
2021/12/22 03:45:54;;;;;;;;;;;-4.30;99.90;;;;;;5002466;28;19925;-69
2021/12/22 03:48:22;;;;;;;;;;;-4.30;99.90;;;;;;5010585;28;20296;-68
2021/12/22 03:50:48;;;;;;;;;;;-4.40;99.90;;;;;;5009332;28;19925;-69
2021/12/22 03:53:15;;;;;;;;;;;-4.40;99.90;;;;;;5009370;28;19935;-69
2021/12/22 03:55:42;;;;;;;;;;;-4.50;99.90;;;;;;4997808;28;19942;-68
2021/12/22 03:58:10;;;;;;;;;;;-4.50;99.90;;;;;;5010324;28;19936;-69
2021/12/22 04:00:37;;;;;;;;;;;-4.50;99.90;;;;;;5001168;28;19925;-69
2021/12/22 04:03:04;;;;;;;;;;;-4.40;99.90;;;;;;5008745;28;21292;-69
2021/12/22 04:05:31;;;;;;;;;;;-4.40;99.90;;;;;;4998856;28;20296;-69
2021/12/22 04:07:58;;;;;;;;;;;-4.40;99.90;;;;;;5008191;28;20339;-69
2021/12/22 04:10:25;;;;;;;;;;;-4.40;99.90;;;;;;5009079;28;20470;-69
2021/12/22 04:12:53;;;;;;;;;;;-4.50;99.90;;;;;;5011501;28;19925;-68
2021/12/22 04:15:21;;;;;;;;;;;-4.50;99.90;;;;;;4999165;28;20032;-68
2021/12/22 04:17:48;;;;;;;;;;;-4.50;99.90;;;;;;5011607;28;19925;-69
2021/12/22 04:20:15;;;;;;;;;;;-4.50;99.90;;;;;;5004903;28;20038;-70
2021/12/22 04:22:42;;;;;;;;;;;-4.60;99.90;;;;;;5012147;28;20027;-69
2021/12/22 04:25:09;;;;;;;;;;;-4.60;99.90;;;;;;5012071;28;20024;-70
2021/12/22 04:27:37;;;;;;;;;;;-4.50;99.90;;;;;;5001583;28;19926;-69
2021/12/22 04:30:04;;;;;;;;;;;-4.50;99.90;;;;;;5010227;28;19932;-69
2021/12/22 04:32:32;;;;;;;;;;;-4.50;99.90;;;;;;5013140;28;20028;-68
2021/12/22 04:34:59;;;;;;;;;;;-4.40;99.90;;;;;;5010840;28;19925;-69
2021/12/22 04:37:25;;;;;;;;;;;-4.40;99.90;;;;;;5011144;28;19932;-69
2021/12/22 04:39:52;;;;;;;;;;;-4.30;99.90;;;;;;5006258;28;19930;-68
2021/12/22 04:42:19;;;;;;;;;;;-4.30;99.90;;;;;;4999841;28;19926;-69
2021/12/22 04:44:46;;;;;;;;;;;-4.20;99.90;;;;;;5010533;28;19925;-69
2021/12/22 04:47:12;;;;;;;;;;;-4.20;99.90;;;;;;4998870;28;19926;-69
2021/12/22 04:49:40;;;;;;;;;;;-4.20;99.90;;;;;;5010201;28;19932;-69
2021/12/22 04:52:10;;;;;;;;;;;-4.10;99.90;;;;;;5005524;28;19933;-70
2021/12/22 04:54:47;;;;;;;;;;;-4.10;99.90;;;;;;5017501;28;19925;-69
2021/12/22 04:57:14;;;;;;;;;;;-4.10;99.90;;;;;;5005942;28;19926;-69
2021/12/22 04:59:41;;;;;;;;;;;-4.10;99.90;;;;;;5015975;28;19937;-69
2021/12/22 05:02:07;;;;;;;;;;;-4.10;99.90;;;;;;5018675;28;20291;-69
2021/12/22 05:04:34;;;;;;;;;;;-4.10;99.90;;;;;;5022540;28;20029;-69
2021/12/22 05:07:02;;;;;;;;;;;-4.10;99.90;;;;;;5007794;28;19926;-69
2021/12/22 05:09:29;;;;;;;;;;;-4.20;99.90;;;;;;5016614;28;20304;-68
2021/12/22 05:11:55;;;;;;;;;;;-4.10;99.90;;;;;;5013701;28;19926;-69
2021/12/22 05:14:23;;;;;;;;;;;-4.10;99.90;;;;;;5017557;28;19926;-68
2021/12/22 05:16:52;;;;;;;;;;;-4.10;99.90;;;;;;5010896;28;19936;-68
2021/12/22 05:19:19;;;;;;;;;;;-4.10;99.90;;;;;;5016575;28;19936;-68
2021/12/22 05:21:46;;;;;;;;;;;-4.10;99.90;;;;;;5012388;28;19925;-68
2021/12/22 05:24:14;;;;;;;;;;;-4.00;99.90;;;;;;5011747;28;20388;-68
2021/12/22 05:26:40;;;;;;;;;;;-3.90;99.90;;;;;;5013508;28;20372;-69
2021/12/22 05:29:07;;;;;;;;;;;-4.00;99.90;;;;;;5015899;28;19930;-67
2021/12/22 05:31:34;;;;;;;;;;;-4.00;99.90;;;;;;5018473;28;19926;-68
2021/12/22 05:34:00;;;;;;;;;;;-4.00;99.90;;;;;;5015366;28;19925;-68
2021/12/22 05:36:27;;;;;;;;;;;-4.10;99.90;;;;;;5014761;28;19961;-69
2021/12/22 05:38:54;;;;;;;;;;;-4.10;99.90;;;;;;5011373;28;20387;-69
2021/12/22 05:41:22;;;;;;;;;;;-4.10;99.90;;;;;;5019951;28;19931;-68
2021/12/22 05:43:48;;;;;;;;;;;-4.10;99.90;;;;;;5015143;28;20285;-68
2021/12/22 05:46:16;;;;;;;;;;;-4.10;99.90;;;;;;5016053;28;20281;-69
2021/12/22 05:48:44;;;;;;;;;;;-4.00;99.90;;;;;;5013078;28;19965;-69
2021/12/22 05:51:11;;;;;;;;;;;-4.10;99.90;;;;;;5009985;28;20012;-69
2021/12/22 05:53:37;;;;;;;;;;;-4.10;99.90;;;;;;5016444;28;20016;-69
2021/12/22 05:56:04;;;;;;;;;;;-4.10;99.90;;;;;;5015149;28;19932;-68
2021/12/22 05:58:32;;;;;;;;;;;-4.10;99.90;;;;;;5019960;28;19925;-69
2021/12/22 06:00:59;;;;;;;;;;;-4.10;99.90;;;;;;5018971;28;19933;-69
2021/12/22 06:03:26;;;;;;;;;;;-4.10;99.90;;;;;;5013449;28;20019;-69
2021/12/22 06:05:53;;;;;;;;;;;-4.10;99.90;;;;;;5012677;28;19949;-69
2021/12/22 06:08:19;;;;;;;;;;;-4.20;99.90;;;;;;5010281;28;19944;-69
2021/12/22 06:10:46;;;;;;;;;;;-4.30;99.90;;;;;;5013343;28;19932;-69
2021/12/22 06:13:13;;;;;;;;;;;-4.30;99.90;;;;;;5008699;28;19934;-69
2021/12/22 06:15:41;;;;;;;;;;;-4.40;99.90;;;;;;5013003;28;19933;-69
2021/12/22 06:18:08;;;;;;;;;;;-4.50;99.90;;;;;;5012021;28;21163;-69
2021/12/22 06:20:35;;;;;;;;;;;-4.50;99.90;;;;;;5009824;28;19994;-68
2021/12/22 06:23:02;;;;;;;;;;;-4.50;99.90;;;;;;5012095;28;19940;-69
2021/12/22 06:25:28;;;;;;;;;;;-4.40;99.90;;;;;;5013290;28;20025;-68
2021/12/22 06:27:55;;;;;;;;;;;-4.40;99.90;;;;;;5010167;28;19926;-69
2021/12/22 06:30:23;;;;;;;;;;;-4.40;99.90;;;;;;5012864;28;19932;-69
2021/12/22 06:32:51;;;;;;;;;;;-4.50;99.90;;;;;;5005369;28;19926;-69
2021/12/22 06:35:18;;;;;;;;;;;-4.50;99.90;;;;;;5014748;28;19938;-69
2021/12/22 06:37:45;;;;;;;;;;;-4.50;99.90;;;;;;5011588;28;20024;-69
2021/12/22 06:40:12;;;;;;;;;;;-4.60;99.90;;;;;;5014443;28;19925;-68
2021/12/22 06:42:42;;;;;;;;;;;-4.60;99.90;;;;;;5002058;28;19925;-69
2021/12/22 06:45:10;;;;;;;;;;;-4.60;99.90;;;;;;5012273;28;19926;-69
2021/12/22 06:47:37;;;;;;;;;;;-4.50;99.90;;;;;;5015004;28;19925;-68
2021/12/22 06:50:06;;;;;;;;;;;-4.50;99.90;;;;;;5013198;28;19973;-68
2021/12/22 06:52:35;;;;;;;;;;;-4.40;99.90;;;;;;5004151;28;19926;-69
2021/12/22 06:55:01;;;;;;;;;;;-4.40;99.90;;;;;;5012875;28;19932;-68
2021/12/22 06:57:29;;;;;;;;;;;-4.30;99.90;;;;;;5011902;28;19925;-68
2021/12/22 06:59:57;;;;;;;;;;;-4.30;99.90;;;;;;5010500;28;19933;-69
2021/12/22 07:02:24;;;;;;;;;;;-4.30;99.90;;;;;;5009574;28;19936;-68
2021/12/22 07:04:51;;;;;;;;;;;-4.30;99.90;;;;;;5013570;28;19925;-70
2021/12/22 07:07:19;;;;;;;;;;;-4.30;99.90;;;;;;5012445;28;19925;-70
2021/12/22 07:09:46;;;;;;;;;;;-4.30;99.90;;;;;;5011665;28;19932;-68
2021/12/22 07:12:13;;;;;;;;;;;-4.30;99.90;;;;;;4999130;28;19926;-70
2021/12/22 07:14:40;;;;;;;;;;;-4.30;99.90;;;;;;5007708;28;20377;-68
2021/12/22 07:17:07;;;;;;;;;;;-4.20;99.90;;;;;;5004967;28;20023;-69
2021/12/22 07:19:33;;;;;;;;;;;-4.10;99.90;;;;;;5009487;28;20012;-69
2021/12/22 07:22:00;;;;;;;;;;;-4.10;99.90;;;;;;5007263;28;20013;-69
2021/12/22 07:24:28;;;;;;;;;;;-4.20;99.90;;;;;;5011820;28;19926;-69
2021/12/22 07:26:55;;;;;;;;;;;-4.20;99.90;;;;;;5010008;28;19933;-73
2021/12/22 07:29:21;;;;;;;;;;;-4.20;99.90;;;;;;5007549;28;19933;-70
2021/12/22 07:31:48;;;;;;;;;;;-4.20;99.90;;;;;;5010270;28;20050;-69
2021/12/22 07:34:17;;;;;;;;;;;-4.10;99.90;;;;;;5009879;28;20519;-69
2021/12/22 07:36:59;;;;;;;;;;;-4.10;99.90;;;;;;5009468;28;20027;-69
2021/12/22 07:39:27;;;;;;;;;;;-4.10;99.90;;;;;;5011376;28;19925;-68
2021/12/22 07:41:54;;;;;;;;;;;-4.10;99.90;;;;;;5007583;28;20397;-69
2021/12/22 07:44:21;;;;;;;;;;;-4.10;99.90;;;;;;5012413;28;19926;-69
2021/12/22 07:46:48;;;;;;;;;;;-4.00;99.90;;;;;;5010759;28;19929;-69
2021/12/22 07:49:14;;;;;;;;;;;-4.00;99.90;;;;;;5010202;28;19937;-69
2021/12/22 07:51:41;;;;;;;;;;;-3.90;99.90;;;;;;5007644;28;20032;-69
2021/12/22 07:54:08;;;;;;;;;;;-3.90;99.90;;;;;;5007132;28;19932;-69
2021/12/22 07:56:36;;;;;;;;;;;-3.90;99.90;;;;;;5012015;28;19938;-70
2021/12/22 07:59:02;;;;;;;;;;;-3.90;99.90;;;;;;5011364;28;19979;-70
2021/12/22 08:01:32;;;;;;;;;;;-3.80;99.90;;;;;;5014454;28;19943;-70
2021/12/22 08:04:01;;;;;;;;;;;-3.80;99.90;;;;;;5004854;28;19925;-69
2021/12/22 08:06:28;;;;;;;;;;;-3.80;99.90;;;;;;5002399;28;19926;-69
2021/12/22 08:08:55;;;;;;;;;;;-3.70;99.90;;;;;;5013380;28;20412;-69
2021/12/22 08:11:22;;;;;;;;;;;-3.70;99.90;;;;;;5015761;28;20001;-70
2021/12/22 08:13:50;;;;;;;;;;;-3.70;99.90;;;;;;5005617;28;19925;-71
2021/12/22 08:16:17;;;;;;;;;;;-3.60;99.90;;;;;;5005346;28;19926;-68
2021/12/22 08:18:43;;;;;;;;;;;-3.60;99.90;;;;;;5014095;28;19926;-71
2021/12/22 08:21:15;;;;;;;;;;;-3.50;99.90;;;;;;5016361;28;19932;-70
2021/12/22 08:23:42;;;;;;;;;;;-3.50;99.90;;;;;;5009407;28;19926;-68
2021/12/22 08:26:08;;;;;;;;;;;-3.50;99.90;;;;;;5007608;28;19925;-70
2021/12/22 08:28:35;;;;;;;;;;;-3.50;99.90;;;;;;5010253;28;20402;-69
2021/12/22 08:31:03;;;;;;;;;;;-3.50;99.90;;;;;;4999222;28;19925;-69
2021/12/22 08:33:33;;;;;;;;;;;-3.50;99.90;;;;;;5002946;28;20491;-72
2021/12/22 08:38:51;;;;;;;;;;;-3.30;99.90;;;;;;5014404;28;20400;-69
2021/12/22 08:41:18;;;;;;;;;;;-3.20;99.90;;;;;;5014003;28;19926;-70
2021/12/22 08:43:44;;;;;;;;;;;-3.00;99.90;;;;;;5002700;28;19965;-72
2021/12/22 08:46:12;;;;;;;;;;;-2.90;99.90;;;;;;5009279;28;20020;-72
2021/12/22 08:48:39;;;;;;;;;;;-2.70;99.90;;;;;;5009820;28;19935;-70
2021/12/22 08:51:06;;;;;;;;;;;-2.50;99.90;;;;;;5010725;28;19925;-70
2021/12/22 08:53:32;;;;;;;;;;;-1.80;99.90;;;;;;5002916;28;19947;-70
2021/12/22 08:55:59;;;;;;;;;;;-1.60;99.90;;;;;;5002977;28;20203;-69
2021/12/22 08:58:26;;;;;;;;;;;-1.80;99.90;;;;;;5009890;28;19933;-70
2021/12/22 09:00:52;;;;;;;;;;;-1.70;99.90;;;;;;5007300;28;19934;-70
2021/12/22 09:03:21;;;;;;;;;;;-1.50;99.90;;;;;;5006857;28;19945;-70
2021/12/22 09:05:47;;;;;;;;;;;-1.20;99.90;;;;;;5007448;28;20404;-74
2021/12/22 09:08:14;;;;;;;;;;;-1.40;99.90;;;;;;5007802;28;20436;-71
2021/12/22 09:10:41;;;;;;;;;;;-1.30;99.90;;;;;;5010444;28;19955;-69
2021/12/22 09:13:07;;;;;;;;;;;-1.40;99.90;;;;;;5002024;28;19936;-70
2021/12/22 09:15:35;;;;;;;;;;;-1.40;99.90;;;;;;5006385;28;20397;-70
2021/12/22 09:18:02;;;;;;;;;;;-1.10;99.90;;;;;;4999006;28;20343;-69
2021/12/22 09:20:30;;;;;;;;;;;-0.60;99.90;;;;;;5005922;28;19926;-69
2021/12/22 09:22:57;;;;;;;;;;;0.00;99.90;;;;;;4998255;28;19933;-69
2021/12/22 09:25:23;;;;;;;;;;;0.30;99.90;;;;;;5009107;28;19957;-68
2021/12/22 09:27:50;;;;;;;;;;;0.40;99.90;;;;;;5008038;28;19932;-68
2021/12/22 09:30:17;;;;;;;;;;;0.00;99.90;;;;;;5005252;28;19932;-69
2021/12/22 09:32:47;;;;;;;;;;;-0.60;99.90;;;;;;5005133;28;19989;-69
2021/12/22 09:35:14;;;;;;;;;;;-0.80;99.90;;;;;;5005247;28;20410;-70
2021/12/22 09:37:42;;;;;;;;;;;-0.90;99.90;;;;;;5009701;28;20295;-69
2021/12/22 09:40:10;;;;;;;;;;;-0.80;99.90;;;;;;5010301;28;19926;-69
2021/12/22 09:42:36;;;;;;;;;;;-0.80;99.90;;;;;;5014320;28;20028;-69
2021/12/22 09:45:04;;;;;;;;;;;-0.80;99.90;;;;;;5008341;28;19929;-68
2021/12/22 09:47:41;;;;;;;;;;;-0.90;99.90;;;;;;5013285;28;19969;-70
2021/12/22 09:50:10;;;;;;;;;;;-0.90;99.90;;;;;;5010840;28;19926;-69
2021/12/22 09:52:37;;;;;;;;;;;-1.00;99.90;;;;;;5007223;28;19926;-69
2021/12/22 09:55:08;;;;;;;;;;;-1.10;99.90;;;;;;5010329;28;19925;-70
2021/12/22 09:57:35;;;;;;;;;;;-1.10;99.90;;;;;;5010875;28;20000;-69
2021/12/22 10:00:03;;;;;;;;;;;-1.00;99.90;;;;;;5010096;28;19937;-70
2021/12/22 10:02:30;;;;;;;;;;;-1.00;99.90;;;;;;5011179;28;19926;-71
2021/12/22 10:04:58;;;;;;;;;;;-1.10;99.90;;;;;;5008645;28;20029;-69
2021/12/22 10:07:28;;;;;;;;;;;-1.00;99.90;;;;;;5008668;28;20032;-70
2021/12/22 10:09:55;;;;;;;;;;;-0.80;99.90;;;;;;5008283;28;19926;-70
2021/12/22 10:12:25;;;;;;;;;;;-0.70;99.90;;;;;;5010627;28;19925;-68
2021/12/22 10:14:52;;;;;;;;;;;-0.70;99.90;;;;;;5004659;28;20288;-70
2021/12/22 10:17:43;;;;;;;;;;;-0.70;99.90;;;;;;5012290;28;20044;-71
2021/12/22 10:20:12;;;;;;;;;;;-0.70;99.90;;;;;;4991293;28;20771;-69
2021/12/22 10:22:39;;;;;;;;;;;-0.60;99.90;;;;;;5011852;28;20380;-70
2021/12/22 10:25:10;;;;;;;;;;;-0.50;99.90;;;;;;5009602;28;20032;-70
2021/12/22 10:27:40;;;;;;;;;;;-0.40;99.90;;;;;;5010077;28;19929;-70
2021/12/22 10:30:23;;;;;;;;;;;-0.30;99.90;;;;;;5005442;28;20412;-69
2021/12/22 10:32:49;;;;;;;;;;;-0.30;99.90;;;;;;5004737;28;19927;-70
2021/12/22 10:35:16;;;;;;;;;;;-0.30;99.90;;;;;;5008329;28;19981;-70
2021/12/22 10:37:44;;;;;;;;;;;-0.20;99.90;;;;;;5003878;28;19937;-71
2021/12/22 10:40:24;;;;;;;;;;;-0.20;99.90;;;;;;5009745;28;20422;-70
2021/12/22 10:42:53;;;;;;;;;;;-0.20;99.90;;;;;;5011426;28;19965;-69
2021/12/22 10:45:20;;;;;;;;;;;-0.20;99.90;;;;;;5009069;28;19969;-70
2021/12/22 10:50:29;;;;;;;;;;;-0.10;99.90;;;;;;5007518;28;19941;-69
2021/12/22 10:52:58;;;;;;;;;;;-0.20;99.90;;;;;;5005558;28;19992;-71
2021/12/22 10:55:24;;;;;;;;;;;-0.20;99.90;;;;;;5003555;28;19925;-70
2021/12/22 10:57:53;;;;;;;;;;;-0.10;99.90;;;;;;5009779;28;20012;-70
2021/12/22 11:00:20;;;;;;;;;;;-0.10;99.90;;;;;;5004546;28;20016;-71
2021/12/22 11:06:12;;;;;;;;;;;-0.10;99.90;;;;;;5008057;28;19926;-74
2021/12/22 11:08:40;;;;;;;;;;;-0.20;99.90;;;;;;5001256;28;19987;-71
2021/12/22 11:11:13;;;;;;;;;;;-0.20;99.90;;;;;;5010580;28;20020;-70
2021/12/22 11:13:42;;;;;;;;;;;-0.20;99.90;;;;;;5004595;28;20457;-70
2021/12/22 11:16:13;;;;;;;;;;;-0.20;99.90;;;;;;5009746;28;19953;-71
2021/12/22 11:18:41;;;;;;;;;;;0.00;99.90;;;;;;5008453;28;19953;-71
2021/12/22 11:21:10;;;;;;;;;;;0.00;99.90;;;;;;5005289;28;19972;-71
2021/12/22 11:23:37;;;;;;;;;;;0.10;99.90;;;;;;5007093;28;21906;-70
2021/12/22 11:26:04;;;;;;;;;;;0.20;99.90;;;;;;5005688;28;20438;-71
2021/12/22 11:28:31;;;;;;;;;;;0.20;99.90;;;;;;4995914;23;20029;-72
2021/12/22 11:30:59;;;;;;;;;;;0.10;99.90;;;;;;4979040;28;19949;-71
2021/12/22 11:33:28;;;;;;;;;;;0.10;99.90;;;;;;4984166;28;19926;-69
2021/12/22 11:35:56;;;;;;;;;;;0.20;99.90;;;;;;4981259;28;19961;-70
2021/12/22 11:38:25;;;;;;;;;;;0.20;99.90;;;;;;4991784;28;20628;-71
2021/12/22 11:40:55;;;;;;;;;;;0.20;99.90;;;;;;4992317;28;19976;-71
2021/12/22 11:43:24;;;;;;;;;;;0.10;99.90;;;;;;4985828;28;20377;-73
2021/12/22 11:45:51;;;;;;;;;;;0.00;99.90;;;;;;4987846;28;19925;-71
2021/12/22 11:48:20;;;;;;;;;;;0.00;99.90;;;;;;4990279;28;19933;-71
2021/12/22 11:50:47;;;;;;;;;;;0.00;99.90;;;;;;4992142;28;20017;-72
2021/12/22 11:53:17;;;;;;;;;;;0.10;99.90;;;;;;4994954;28;19942;-70
2021/12/22 11:55:44;;;;;;;;;;;0.20;99.90;;;;;;4991366;28;19930;-70
2021/12/22 11:58:13;;;;;;;;;;;0.20;99.90;;;;;;4993299;28;20001;-70
2021/12/22 12:00:40;;;;;;;;;;;0.20;99.90;;;;;;4996525;28;19926;-71
2021/12/22 12:03:25;;;;;;;;;;;0.20;99.90;;;;;;4990329;28;19989;-70
2021/12/22 12:06:11;;;;;;;;;;;0.30;99.90;;;;;;4992159;28;19925;-72
2021/12/22 12:08:39;;;;;;;;;;;0.50;99.90;;;;;;4987704;28;20278;-72
2021/12/22 12:11:07;;;;;;;;;;;0.60;99.90;;;;;;4979770;28;20036;-70
2021/12/22 12:13:43;;;;;;;;;;;0.50;99.90;;;;;;4993527;28;19948;-76
2021/12/22 12:22:00;;;;;;;;;;;0.70;99.90;;;;;;4989381;28;19933;-72
2021/12/22 12:24:42;;;;;;;;;;;0.80;99.90;;;;;;4985541;28;20076;-73
2021/12/22 12:27:27;;;;;;;;;;;0.70;99.90;;;;;;4991898;28;20333;-70
2021/12/22 12:29:55;;;;;;;;;;;0.50;99.90;;;;;;4986871;28;19933;-70
2021/12/22 12:32:36;;;;;;;;;;;0.60;99.90;;;;;;4978121;28;19933;-70
2021/12/22 12:35:22;;;;;;;;;;;0.70;99.90;;;;;;4980901;28;19926;-71
2021/12/22 12:38:01;;;;;;;;;;;0.80;99.90;;;;;;4968696;28;20028;-71
2021/12/22 12:40:42;;;;;;;;;;;0.80;99.90;;;;;;4976057;28;19988;-72
2021/12/22 12:43:10;;;;;;;;;;;0.90;99.90;;;;;;4975235;28;20041;-70
2021/12/22 12:45:44;;;;;;;;;;;0.80;99.90;;;;;;4976851;28;19933;-69
2021/12/22 12:48:24;;;;;;;;;;;0.70;99.90;;;;;;4975061;28;20012;-70
2021/12/22 12:51:06;;;;;;;;;;;0.70;99.90;;;;;;4972117;28;19926;-71
2021/12/22 12:53:38;;;;;;;;;;;0.80;99.90;;;;;;4980693;28;19937;-71
2021/12/22 12:56:07;;;;;;;;;;;0.90;99.90;;;;;;4983512;28;20012;-70
2021/12/22 12:58:33;;;;;;;;;;;0.90;99.90;;;;;;4981890;28;19936;-70
2021/12/22 13:01:00;;;;;;;;;;;0.90;99.90;;;;;;4978821;28;19926;-69
2021/12/22 13:03:27;;;;;;;;;;;0.90;99.90;;;;;;4976845;28;19940;-70
2021/12/22 13:05:54;;;;;;;;;;;1.00;99.90;;;;;;4974506;28;20439;-70
2021/12/22 13:08:23;;;;;;;;;;;1.10;99.90;;;;;;4980416;28;20377;-70
2021/12/22 13:10:51;;;;;;;;;;;1.10;99.90;;;;;;4977271;28;19972;-69
2021/12/22 13:13:29;;;;;;;;;;;1.10;99.90;;;;;;4980111;28;20850;-70
2021/12/22 13:15:55;;;;;;;;;;;1.20;99.90;;;;;;4990506;28;20385;-71
2021/12/22 13:18:28;;;;;;;;;;;1.40;99.90;;;;;;4979942;28;19933;-70
2021/12/22 13:20:58;;;;;;;;;;;1.40;99.90;;;;;;4984012;28;20055;-71
2021/12/22 13:23:26;;;;;;;;;;;1.40;99.90;;;;;;4987916;28;19937;-71
2021/12/22 13:25:55;;;;;;;;;;;1.40;99.90;;;;;;4988055;28;19930;-71
2021/12/22 13:28:23;;;;;;;;;;;1.40;99.90;;;;;;4989203;28;20431;-70
2021/12/22 13:31:11;;;;;;;;;;;1.40;99.90;;;;;;4987217;28;20423;-71
2021/12/22 13:33:41;;;;;;;;;;;1.30;99.90;;;;;;4983692;28;20401;-71
2021/12/22 13:36:11;;;;;;;;;;;1.40;99.90;;;;;;4987554;28;20161;-71
2021/12/22 13:38:41;;;;;;;;;;;1.30;99.90;;;;;;4986852;28;19926;-71
2021/12/22 13:41:10;;;;;;;;;;;1.30;99.90;;;;;;4989512;28;20032;-70
2021/12/22 13:43:38;;;;;;;;;;;1.30;99.90;;;;;;4987980;28;19932;-74
2021/12/22 13:46:16;;;;;;;;;;;1.40;99.90;;;;;;4984514;28;19973;-74
2021/12/22 13:48:44;;;;;;;;;;;1.50;99.90;;;;;;4987465;28;19926;-73
2021/12/22 13:51:11;;;;;;;;;;;1.50;99.90;;;;;;4992758;28;20346;-73
2021/12/22 13:53:40;;;;;;;;;;;1.50;99.90;;;;;;4988757;28;20366;-74
2021/12/22 13:56:10;;;;;;;;;;;1.60;99.90;;;;;;4992816;28;20336;-74
2021/12/22 13:58:38;;;;;;;;;;;1.70;99.90;;;;;;4991055;28;20377;-74
2021/12/22 14:01:22;;;;;;;;;;;1.70;99.90;;;;;;4988571;28;19940;-74
2021/12/22 14:03:50;;;;;;;;;;;1.70;99.90;;;;;;4990496;28;20385;-72
2021/12/22 14:06:20;;;;;;;;;;;1.70;99.90;;;;;;4986833;28;19940;-71
2021/12/22 14:09:05;;;;;;;;;;;1.70;99.90;;;;;;4980729;28;20078;-71
2021/12/22 14:11:35;;;;;;;;;;;1.70;99.90;;;;;;4975296;28;20333;-72
2021/12/22 14:14:21;;;;;;;;;;;1.70;99.90;;;;;;4981482;28;20289;-71
2021/12/22 14:16:48;;;;;;;;;;;1.70;99.90;;;;;;4982515;28;19970;-70
2021/12/22 14:19:15;;;;;;;;;;;1.60;99.90;;;;;;4986860;28;19966;-69
2021/12/22 14:21:42;;;;;;;;;;;1.60;99.90;;;;;;4980966;28;19929;-70
2021/12/22 14:24:08;;;;;;;;;;;1.60;99.90;;;;;;4982974;28;19980;-71
2021/12/22 14:26:45;;;;;;;;;;;1.50;99.90;;;;;;4988575;28;19926;-70
2021/12/22 14:29:12;;;;;;;;;;;1.50;99.90;;;;;;4982394;28;19981;-71
2021/12/22 14:31:53;;;;;;;;;;;1.40;99.90;;;;;;4981353;28;19965;-70
2021/12/22 14:34:20;;;;;;;;;;;1.40;99.90;;;;;;4978940;28;19940;-70
2021/12/22 14:36:48;;;;;;;;;;;1.40;99.90;;;;;;4981888;28;19926;-68
2021/12/22 14:39:14;;;;;;;;;;;1.40;99.90;;;;;;4980702;28;19930;-70
2021/12/22 14:41:43;;;;;;;;;;;1.40;99.90;;;;;;4979624;28;20381;-71
2021/12/22 14:44:20;;;;;;;;;;;1.30;99.90;;;;;;4976702;28;20028;-68
2021/12/22 14:46:47;;;;;;;;;;;1.30;99.90;;;;;;4984628;28;19926;-69
2021/12/22 14:49:15;;;;;;;;;;;1.20;99.90;;;;;;4979490;28;19930;-68